Time;durP1;ratioP1;P1;durP2;ratioP2;P2;SDS_P1;SDS_P2;PMS_P1;PMS_P2;Temp;Humidity;BMP_temperature;BMP_pressure;BME280_temperature;BME280_humidity;BME280_pressure;Samples;Min_cycle;Max_cycle;Signal;HPM_P1;HPM_P2
2023/02/18 00:01:48;;;;;;;;;;;;;;;21.79;21.15;98337.78;5076437;28;791;-78
2023/02/18 00:04:14;;;;;;;;;;;;;;;22.26;20.45;98337.53;5110002;28;920;-78
2023/02/18 00:06:39;;;;;;;;;;;;;;;22.45;20.53;98338.72;5029295;28;1360625;-78
2023/02/18 00:09:05;;;;;;;;;;;;;;;22.20;20.75;98334.44;5078008;28;842;-78
2023/02/18 00:11:31;;;;;;;;;;;;;;;22.14;20.46;98326.91;5116229;28;968;-78
2023/02/18 00:13:57;;;;;;;;;;;;;;;21.98;20.90;98322.78;5082334;28;1244;-78
2023/02/18 00:16:23;;;;;;;;;;;;;;;21.76;20.97;98316.81;5115968;28;977;-78
2023/02/18 00:18:48;;;;;;;;;;;;;;;22.31;20.34;98317.97;5099401;28;897;-78
2023/02/18 00:21:14;;;;;;;;;;;;;;;22.66;20.25;98315.47;5116025;28;1040;-78
2023/02/18 00:23:39;;;;;;;;;;;;;;;22.12;20.46;98321.66;5115995;28;978;-78
2023/02/18 00:26:11;;;;;;;;;;;;;;;22.09;20.56;98322.53;5115790;28;1901;-78
2023/02/18 00:28:39;;;;;;;;;;;;;;;22.10;20.67;98307.13;5099000;28;924;-78
2023/02/18 00:31:05;;;;;;;;;;;;;;;22.19;20.51;98304.50;5098883;28;1105;-78
2023/02/18 00:33:31;;;;;;;;;;;;;;;22.32;20.77;98304.59;5098740;28;930;-78
2023/02/18 00:36:04;;;;;;;;;;;;;;;22.15;20.75;98292.44;5098535;28;1002;-78
2023/02/18 00:38:29;;;;;;;;;;;;;;;21.98;20.83;98288.00;5114999;28;926;-79
2023/02/18 00:40:55;;;;;;;;;;;;;;;21.78;20.96;98288.03;5115843;28;976;-78
2023/02/18 00:43:20;;;;;;;;;;;;;;;22.03;20.69;98279.75;5078879;28;951;-78
2023/02/18 00:45:46;;;;;;;;;;;;;;;22.13;20.65;98277.16;5076171;28;1913;-78
2023/02/18 00:48:11;;;;;;;;;;;;;;;21.97;21.02;98269.41;5110072;28;917;-78
2023/02/18 00:50:37;;;;;;;;;;;;;;;22.07;20.61;98274.81;5076108;28;1250;-78
2023/02/18 00:53:02;;;;;;;;;;;;;;;21.75;21.15;98269.88;5075850;28;1200;-78
2023/02/18 00:55:29;;;;;;;;;;;;;;;22.03;20.79;98267.63;5075719;28;1260;-78
2023/02/18 00:57:54;;;;;;;;;;;;;;;22.27;20.51;98263.38;5077608;28;843;-78
2023/02/18 01:00:20;;;;;;;;;;;;;;;22.18;20.52;98259.59;5075601;28;1190;-78
2023/02/18 01:02:45;;;;;;;;;;;;;;;22.08;20.98;98252.94;5110526;28;893;-78
2023/02/18 01:05:11;;;;;;;;;;;;;;;21.93;21.18;98249.66;5076848;28;821;-78
2023/02/18 01:07:36;;;;;;;;;;;;;;;21.96;20.97;98250.78;5076478;28;1991;-78
2023/02/18 01:10:02;;;;;;;;;;;;;;;22.28;20.53;98250.03;5076893;28;906;-78
2023/02/18 01:12:27;;;;;;;;;;;;;;;22.04;20.87;98241.66;5091984;28;1422;-78
2023/02/18 01:14:53;;;;;;;;;;;;;;;21.85;21.05;98239.72;5092779;28;1668;-78
2023/02/18 01:17:18;;;;;;;;;;;;;;;21.74;21.12;98244.84;5092387;28;1057;-78
2023/02/18 01:19:44;;;;;;;;;;;;;;;21.93;20.92;98240.34;5076823;28;837;-78
2023/02/18 01:22:09;;;;;;;;;;;;;;;22.19;20.64;98241.34;5075423;28;1153;-78
2023/02/18 01:24:37;;;;;;;;;;;;;;;22.10;20.93;98239.09;5109125;28;1002;-78
2023/02/18 01:27:02;;;;;;;;;;;;;;;21.82;21.08;98232.91;5075182;28;1973;-78
2023/02/18 01:29:28;;;;;;;;;;;;;;;21.89;21.06;98228.31;5092248;28;928;-78
2023/02/18 01:31:54;;;;;;;;;;;;;;;21.95;20.89;98238.66;5075351;28;936;-78
2023/02/18 01:34:19;;;;;;;;;;;;;;;22.15;21.01;98224.44;5091261;28;1444;-78
2023/02/18 01:36:44;;;;;;;;;;;;;;;21.99;21.09;98225.19;5076673;28;873;-78
2023/02/18 01:39:10;;;;;;;;;;;;;;;22.09;20.71;98237.50;5058793;28;883;-78
2023/02/18 01:41:35;;;;;;;;;;;;;;;22.19;20.73;98239.31;5075142;28;872;-78
2023/02/18 01:44:20;;;;;;;;;;;;;;;21.96;20.90;98236.63;5058974;28;1137;-78
2023/02/18 01:46:46;;;;;;;;;;;;;;;21.91;21.25;98239.97;5077062;28;1965;-78
2023/02/18 01:49:13;;;;;;;;;;;;;;;22.08;20.85;98235.94;5077139;28;1268;-78
2023/02/18 01:51:40;;;;;;;;;;;;;;;22.57;20.35;98230.22;5077332;28;992;-78
2023/02/18 01:54:10;;;;;;;;;;;;;;;22.14;20.78;98231.34;5060926;28;1236;-78
2023/02/18 01:56:54;;;;;;;;;;;;;;;22.14;20.63;98231.34;5077008;28;898;-78
2023/02/18 01:59:25;;;;;;;;;;;;;;;21.75;21.17;98224.56;5077034;28;1109;-78
2023/02/18 02:01:51;;;;;;;;;;;;;;;22.14;20.84;98214.34;5060767;28;1162;-78
2023/02/18 02:04:16;;;;;;;;;;;;;;;22.05;21.06;98202.78;5076991;28;1046;-78
2023/02/18 02:06:42;;;;;;;;;;;;;;;21.94;21.06;98191.72;5111418;28;1901;-78
2023/02/18 02:09:08;;;;;;;;;;;;;;;22.03;20.88;98196.78;5093682;28;858;-78
2023/02/18 02:11:36;;;;;;;;;;;;;;;21.91;21.17;98203.16;5077210;28;1203;-78
2023/02/18 02:14:02;;;;;;;;;;;;;;;21.92;21.12;98199.09;5077436;28;1189;-78
2023/02/18 02:16:36;;;;;;;;;;;;;;;22.01;21.05;98204.91;5077314;28;1197;-78
2023/02/18 02:19:28;;;;;;;;;;;;;;;22.23;20.63;98220.19;5077414;28;1154;-78
2023/02/18 02:21:57;;;;;;;;;;;;;;;22.03;21.01;98214.59;5091806;28;1089;-78
2023/02/18 02:24:38;;;;;;;;;;;;;;;21.98;20.86;98214.31;5065922;28;975;-78
2023/02/18 02:27:04;;;;;;;;;;;;;;;21.73;21.24;98204.38;5074845;28;1966;-78
2023/02/18 02:29:48;;;;;;;;;;;;;;;22.04;20.92;98204.03;5075945;28;906;-78
2023/02/18 02:32:26;;;;;;;;;;;;;;;22.26;20.75;98210.78;5075030;28;1129;-78
2023/02/18 02:34:51;;;;;;;;;;;;;;;21.87;21.07;98205.28;5074609;28;1285;-78
2023/02/18 02:37:26;;;;;;;;;;;;;;;21.91;21.07;98200.31;5074948;28;1214;-78
2023/02/18 02:40:10;;;;;;;;;;;;;;;21.94;21.10;98210.78;5074770;28;1151;-78
2023/02/18 02:42:45;;;;;;;;;;;;;;;22.00;20.91;98206.97;5074828;28;1232;-78
2023/02/18 02:45:37;;;;;;;;;;;;;;;22.16;21.01;98214.69;5074525;28;1134;-78
2023/02/18 02:48:26;;;;;;;;;;;;;;;21.94;21.03;98205.09;5036963;28;1085;-78
2023/02/18 02:50:53;;;;;;;;;;;;;;;21.82;21.35;98207.41;5036586;28;885;-78
2023/02/18 02:53:21;;;;;;;;;;;;;;;21.81;21.48;98199.34;5020323;28;1187;-78
2023/02/18 02:55:46;;;;;;;;;;;;;;;22.16;21.03;98202.56;5020737;28;1109;-78
2023/02/18 02:58:15;;;;;;;;;;;;;;;22.06;21.15;98198.72;5069640;28;919;-78
2023/02/18 03:00:59;;;;;;;;;;;;;;;21.87;21.26;98199.63;5055049;28;859;-78
2023/02/18 03:03:31;;;;;;;;;;;;;;;21.96;21.21;98194.91;5056715;28;903;-78
2023/02/18 03:06:17;;;;;;;;;;;;;;;22.05;20.96;98197.13;5023529;28;1985;-78
2023/02/18 03:09:09;;;;;;;;;;;;;;;21.27;21.15;98063.91;4958641;29;1154;-78
2023/02/18 03:11:40;;;;;;;;;;;;;;;22.11;21.06;98195.38;4920402;29;1112;-78
2023/02/18 03:14:11;;;;;;;;;;;;;;;21.92;21.17;98187.75;4904511;29;1297;-78
2023/02/18 03:16:58;;;;;;;;;;;;;;;21.93;21.33;98183.69;4920420;29;1185;-78
2023/02/18 03:19:30;;;;;;;;;;;;;;;21.90;21.33;98173.22;4904484;29;1282;-78
2023/02/18 03:22:18;;;;;;;;;;;;;;;22.18;21.02;98183.88;4904523;29;1243;-78
2023/02/18 03:24:47;;;;;;;;;;;;;;;22.01;21.24;98173.75;4928514;29;1126;-78
2023/02/18 03:27:21;;;;;;;;;;;;;;;21.94;21.12;98168.28;4923084;29;1915;-78
2023/02/18 03:29:47;;;;;;;;;;;;;;;22.04;21.15;98173.66;4923375;29;1267;-78
2023/02/18 03:32:14;;;;;;;;;;;;;;;21.94;21.26;98169.06;4907798;29;1203;-78
2023/02/18 03:34:41;;;;;;;;;;;;;;;22.11;20.87;98172.72;4923439;29;1108;-78
2023/02/18 03:37:06;;;;;;;;;;;;;;;22.01;21.34;98163.22;4974024;28;1233;-78
2023/02/18 03:39:32;;;;;;;;;;;;;;;22.27;20.95;98164.19;4974149;28;972;-78
2023/02/18 03:41:58;;;;;;;;;;;;;;;21.93;21.23;98163.84;4954742;29;1417;-78
2023/02/18 03:44:24;;;;;;;;;;;;;;;22.04;20.96;98161.53;4938859;29;981;-78
2023/02/18 03:46:49;;;;;;;;;;;;;;;22.00;21.22;98160.84;4956558;29;1978;-78
2023/02/18 03:49:15;;;;;;;;;;;;;;;22.17;21.19;98165.25;4974453;28;1019;-78
2023/02/18 03:51:41;;;;;;;;;;;;;;;22.08;21.26;98153.75;4961077;28;1249;-78
2023/02/18 03:54:06;;;;;;;;;;;;;;;22.04;20.93;98158.72;4993313;28;1146;-78
2023/02/18 03:56:32;;;;;;;;;;;;;;;22.05;21.08;98160.28;4993373;28;1098;-78
2023/02/18 03:58:58;;;;;;;;;;;;;;;22.08;21.00;98163.03;4976913;28;999;-78
2023/02/18 04:01:23;;;;;;;;;;;;;;;21.77;21.40;98156.94;4977043;28;924;-78
2023/02/18 04:03:49;;;;;;;;;;;;;;;21.96;21.42;98160.13;4976887;28;937;-78
2023/02/18 04:06:14;;;;;;;;;;;;;;;22.24;21.09;98158.63;4977208;28;1985;-78
2023/02/18 04:08:40;;;;;;;;;;;;;;;22.29;21.06;98167.38;5020540;28;970;-78
2023/02/18 04:11:05;;;;;;;;;;;;;;;22.08;20.94;98162.25;5034994;28;1094;-78
2023/02/18 04:13:31;;;;;;;;;;;;;;;22.04;21.00;98167.22;5019039;28;905;-78
2023/02/18 04:15:56;;;;;;;;;;;;;;;22.04;21.00;98153.03;5018943;28;948;-78
2023/02/18 04:18:22;;;;;;;;;;;;;;;22.31;21.10;98164.09;5022390;28;898;-78
2023/02/18 04:20:47;;;;;;;;;;;;;;;22.17;20.97;98159.59;5077653;28;785;-78
2023/02/18 04:23:13;;;;;;;;;;;;;;;22.06;21.21;98153.38;5076631;28;989;-78
2023/02/18 04:25:38;;;;;;;;;;;;;;;21.94;21.11;98146.41;5077411;28;1901;-78
2023/02/18 04:28:04;;;;;;;;;;;;;;;21.77;21.46;98136.34;5076613;28;932;-78
2023/02/18 04:30:29;;;;;;;;;;;;;;;22.05;21.34;98140.47;5077437;28;873;-78
2023/02/18 04:32:55;;;;;;;;;;;;;;;22.38;20.77;98143.25;5077788;28;881;-78
2023/02/18 04:35:20;;;;;;;;;;;;;;;22.19;21.09;98137.28;5076163;28;865;-78
2023/02/18 04:37:45;;;;;;;;;;;;;;;21.98;21.17;98129.31;5077347;28;966;-78
2023/02/18 04:40:11;;;;;;;;;;;;;;;21.72;21.37;98129.16;5069378;28;1518;-78
2023/02/18 04:42:36;;;;;;;;;;;;;;;21.54;21.66;98128.78;5056871;28;1803;-78
2023/02/18 04:45:02;;;;;;;;;;;;;;;22.07;21.33;98116.13;5089404;28;1896;-78
2023/02/18 04:47:27;;;;;;;;;;;;;;;22.28;20.73;98114.78;5072287;28;2235;-78
2023/02/18 04:49:53;;;;;;;;;;;;;;;22.01;21.14;98100.09;5056133;28;1088;-78
2023/02/18 04:52:18;;;;;;;;;;;;;;;22.15;21.06;98111.06;5057540;28;885;-78
2023/02/18 04:54:44;;;;;;;;;;;;;;;21.84;21.21;98117.09;5075091;28;1410;-78
2023/02/18 04:57:09;;;;;;;;;;;;;;;21.57;21.96;98110.94;5074677;28;1827;-78
2023/02/18 04:59:35;;;;;;;;;;;;;;;22.16;21.07;98106.19;5074868;28;905;-79
2023/02/18 05:02:00;;;;;;;;;;;;;;;22.26;20.97;98105.91;5058020;28;875;-78
2023/02/18 05:04:26;;;;;;;;;;;;;;;22.16;20.91;98100.53;5054795;28;1413;-79
2023/02/18 05:06:51;;;;;;;;;;;;;;;21.95;21.24;98099.81;5043122;28;1996;-78
2023/02/18 05:09:16;;;;;;;;;;;;;;;22.11;20.98;98101.88;5067859;28;1379;-78
2023/02/18 05:11:42;;;;;;;;;;;;;;;21.84;21.34;98108.59;5037872;28;914;-78
2023/02/18 05:14:07;;;;;;;;;;;;;;;21.78;21.37;98115.25;5037548;28;964;-78
2023/02/18 05:16:33;;;;;;;;;;;;;;;21.98;21.18;98103.81;5069772;28;1435;-78
2023/02/18 05:18:58;;;;;;;;;;;;;;;22.08;21.38;98108.41;5073383;28;1344;-78
2023/02/18 05:21:24;;;;;;;;;;;;;;;22.17;21.18;98108.56;5057645;28;889;-78
2023/02/18 05:23:49;;;;;;;;;;;;;;;22.00;21.17;98109.84;5073991;28;905;-78
2023/02/18 05:26:14;;;;;;;;;;;;;;;22.06;21.25;98113.72;5075853;28;1913;-78
2023/02/18 05:28:40;;;;;;;;;;;;;;;21.95;21.46;98111.16;5076554;28;803;-78
2023/02/18 05:31:05;;;;;;;;;;;;;;;22.28;20.86;98109.09;5076546;28;763;-78
2023/02/18 05:33:31;;;;;;;;;;;;;;;22.25;21.09;98118.50;5075676;28;1307;-78
2023/02/18 05:35:56;;;;;;;;;;;;;;;22.15;21.05;98115.94;5056310;28;963;-78
2023/02/18 05:38:22;;;;;;;;;;;;;;;22.03;21.30;98114.63;5059766;28;1335;-77
2023/02/18 05:40:48;;;;;;;;;;;;;;;21.99;21.16;98113.91;5095347;28;1495;-78
2023/02/18 05:43:13;;;;;;;;;;;;;;;21.88;21.58;98107.72;5076724;28;892;-79
2023/02/18 05:45:39;;;;;;;;;;;;;;;22.05;21.10;98112.13;5066461;28;1552;-78
2023/02/18 05:48:04;;;;;;;;;;;;;;;22.08;20.99;98106.38;5073741;28;1894;-78
2023/02/18 05:50:29;;;;;;;;;;;;;;;21.98;21.22;98118.00;5076032;28;1481;-78
2023/02/18 05:52:55;;;;;;;;;;;;;;;21.97;21.25;98105.06;5076429;28;796;-78
2023/02/18 05:55:20;;;;;;;;;;;;;;;21.88;21.37;98117.03;5075863;28;949;-78
2023/02/18 05:57:46;;;;;;;;;;;;;;;21.99;21.22;98113.91;5076259;28;856;-78
2023/02/18 06:00:12;;;;;;;;;;;;;;;22.10;21.20;98108.75;5075837;28;837;-78
2023/02/18 06:02:37;;;;;;;;;;;;;;;22.07;21.22;98110.44;5076390;28;1545;-78
2023/02/18 06:05:03;;;;;;;;;;;;;;;21.99;21.09;98108.25;5075657;28;828;-79
2023/02/18 06:07:28;;;;;;;;;;;;;;;22.08;20.99;98111.25;5108792;28;1967;-78
2023/02/18 06:09:54;;;;;;;;;;;;;;;22.10;21.07;98120.09;5075936;28;763;-78
2023/02/18 06:12:19;;;;;;;;;;;;;;;22.19;21.28;98111.78;5076180;28;833;-78
2023/02/18 06:14:45;;;;;;;;;;;;;;;22.33;21.12;98117.06;5076200;28;856;-78
2023/02/18 06:17:10;;;;;;;;;;;;;;;22.06;21.08;98108.03;5076052;28;930;-79
2023/02/18 06:19:36;;;;;;;;;;;;;;;22.05;21.17;98104.41;5108261;28;867;-78
2023/02/18 06:22:01;;;;;;;;;;;;;;;22.02;21.29;98094.00;5056834;28;1111;-79
2023/02/18 06:24:27;;;;;;;;;;;;;;;21.96;21.68;98103.47;5056198;28;851;-78
2023/02/18 06:26:52;;;;;;;;;;;;;;;22.19;21.16;98106.09;5056021;28;1961;-78
2023/02/18 06:29:17;;;;;;;;;;;;;;;22.00;21.58;98099.28;5055890;28;861;-78
2023/02/18 06:31:43;;;;;;;;;;;;;;;22.03;21.36;98091.94;5055750;28;896;-78
2023/02/18 06:34:08;;;;;;;;;;;;;;;21.80;21.70;98090.91;5055754;28;799;-78
2023/02/18 06:36:34;;;;;;;;;;;;;;;21.70;21.69;98085.53;5058993;28;861;-78
2023/02/18 06:39:01;;;;;;;;;;;;;;;22.36;21.15;98090.63;5078216;28;1169;-78
2023/02/18 06:41:26;;;;;;;;;;;;;;;22.25;21.04;98098.66;5058457;28;1528;-78
2023/02/18 06:43:52;;;;;;;;;;;;;;;22.33;20.99;98094.38;5059320;28;860;-79
2023/02/18 06:46:17;;;;;;;;;;;;;;;21.95;21.32;98090.53;5091086;28;1891;-78
2023/02/18 06:48:42;;;;;;;;;;;;;;;21.94;21.65;98088.94;5060357;28;837;-78
2023/02/18 06:51:08;;;;;;;;;;;;;;;21.77;21.55;98093.84;5059773;28;919;-78
2023/02/18 06:53:34;;;;;;;;;;;;;;;21.94;21.36;98084.06;5059624;28;849;-78
2023/02/18 06:55:59;;;;;;;;;;;;;;;22.17;21.10;98102.91;5060319;28;1350;-78
2023/02/18 06:58:24;;;;;;;;;;;;;;;21.97;21.39;98096.56;5094654;28;1315;-78
2023/02/18 07:00:50;;;;;;;;;;;;;;;22.00;21.43;98098.50;5079120;28;863;-78
2023/02/18 07:03:15;;;;;;;;;;;;;;;22.09;21.45;98098.66;5077932;28;946;-78
2023/02/18 07:05:41;;;;;;;;;;;;;;;22.16;21.24;98101.31;5078557;28;902;-78
2023/02/18 07:08:06;;;;;;;;;;;;;;;22.08;21.32;98102.75;5079437;28;1914;-78
2023/02/18 07:10:32;;;;;;;;;;;;;;;22.29;21.02;98107.06;5070256;28;1648;-78
2023/02/18 07:12:57;;;;;;;;;;;;;;;22.12;21.51;98105.50;5074861;28;1766;-78
2023/02/18 07:15:23;;;;;;;;;;;;;;;21.98;21.39;98106.66;5059497;28;852;-78
2023/02/18 07:17:51;;;;;;;;;;;;;;;22.21;21.09;98114.94;5090961;28;898;-78
2023/02/18 07:20:17;;;;;;;;;;;;;;;22.17;21.20;98102.13;5058751;28;870;-78
2023/02/18 07:22:42;;;;;;;;;;;;;;;22.27;20.97;98106.69;5091106;28;971;-78
2023/02/18 07:25:08;;;;;;;;;;;;;;;21.99;21.23;98116.75;5090834;28;1364;-78
2023/02/18 07:27:33;;;;;;;;;;;;;;;22.07;21.18;98115.31;5058709;28;1906;-79
2023/02/18 07:29:59;;;;;;;;;;;;;;;21.97;21.61;98111.53;5058722;28;885;-78
2023/02/18 07:32:24;;;;;;;;;;;;;;;22.19;21.56;98117.44;5058705;28;910;-78
2023/02/18 07:34:51;;;;;;;;;;;;;;;22.17;21.31;98108.56;5058601;28;862;-78
2023/02/18 07:37:16;;;;;;;;;;;;;;;22.05;21.22;98097.97;5057369;28;834;-78
2023/02/18 07:39:42;;;;;;;;;;;;;;;22.06;21.52;98102.38;5057328;28;1344;-78
2023/02/18 07:42:08;;;;;;;;;;;;;;;21.98;21.39;98095.31;5089975;28;970;-78
2023/02/18 07:44:33;;;;;;;;;;;;;;;22.08;21.20;98108.41;5093306;28;1312;-78
2023/02/18 07:46:58;;;;;;;;;;;;;;;22.43;20.66;98103.00;5076664;28;1905;-78
2023/02/18 07:49:24;;;;;;;;;;;;;;;22.24;21.05;98097.06;5111207;28;900;-78
2023/02/18 07:51:49;;;;;;;;;;;;;;;22.10;20.99;98092.56;5111392;28;867;-78
2023/02/18 07:54:15;;;;;;;;;;;;;;;21.90;21.31;98089.03;5078536;28;802;-78
2023/02/18 07:56:42;;;;;;;;;;;;;;;21.79;21.48;98097.81;5094227;28;1141;-78
2023/02/18 07:59:07;;;;;;;;;;;;;;;22.30;20.96;98091.63;5076667;28;1592;-78
2023/02/18 08:01:33;;;;;;;;;;;;;;;22.36;20.72;98099.13;5058240;28;1252;-78
2023/02/18 08:03:59;;;;;;;;;;;;;;;22.10;21.08;98097.41;5057113;28;867;-78
2023/02/18 08:06:25;;;;;;;;;;;;;;;21.95;21.28;98087.72;5090025;28;1922;-78
2023/02/18 08:08:51;;;;;;;;;;;;;;;22.03;21.11;98086.28;5058520;28;963;-78
2023/02/18 08:11:16;;;;;;;;;;;;;;;22.30;20.92;98083.94;5057538;28;863;-78
2023/02/18 08:13:42;;;;;;;;;;;;;;;22.27;21.15;98081.97;5058322;28;1422;-78
2023/02/18 08:16:08;;;;;;;;;;;;;;;22.08;21.07;98083.69;5076885;28;1096;-78
2023/02/18 08:18:33;;;;;;;;;;;;;;;22.16;21.06;98075.81;5110687;28;910;-78
2023/02/18 08:20:59;;;;;;;;;;;;;;;21.99;21.24;98079.91;5076791;28;1240;-78
2023/02/18 08:23:25;;;;;;;;;;;;;;;21.79;21.62;98077.19;5093187;28;923;-78
2023/02/18 08:25:51;;;;;;;;;;;;;;;21.88;21.32;98085.06;5077431;28;1973;-78
2023/02/18 08:28:17;;;;;;;;;;;;;;;22.14;21.13;98078.31;5110018;28;925;-78
2023/02/18 08:30:45;;;;;;;;;;;;;;;21.93;21.17;98078.88;5089092;28;1356;-78
2023/02/18 08:33:11;;;;;;;;;;;;;;;21.92;21.40;98071.63;5097029;28;1364;-79
2023/02/18 08:35:36;;;;;;;;;;;;;;;21.97;21.38;98071.06;5077759;28;889;-78
2023/02/18 08:38:02;;;;;;;;;;;;;;;21.54;21.96;98058.81;5076366;28;1790;-78
2023/02/18 08:40:27;;;;;;;;;;;;;;;21.98;21.26;98067.00;5077493;28;903;-78
2023/02/18 08:42:53;;;;;;;;;;;;;;;22.01;21.38;98054.75;5077158;28;909;-78
2023/02/18 08:45:18;;;;;;;;;;;;;;;22.09;21.34;98056.16;5075977;28;894;-78
2023/02/18 08:47:44;;;;;;;;;;;;;;;22.11;21.32;98048.03;5070536;28;1906;-78
2023/02/18 08:50:09;;;;;;;;;;;;;;;22.04;21.03;98048.19;5055952;28;946;-79
2023/02/18 08:52:35;;;;;;;;;;;;;;;22.34;21.11;98036.44;5056477;28;797;-79
2023/02/18 08:55:00;;;;;;;;;;;;;;;22.14;21.26;98035.81;5089371;28;890;-78
2023/02/18 08:57:26;;;;;;;;;;;;;;;22.19;20.90;98049.44;5056494;28;855;-78
2023/02/18 08:59:51;;;;;;;;;;;;;;;22.06;21.06;98052.16;5090048;28;858;-78
2023/02/18 09:02:17;;;;;;;;;;;;;;;21.97;21.42;98042.75;5061055;28;1390;-78
2023/02/18 09:04:43;;;;;;;;;;;;;;;21.82;21.38;98034.63;5057101;28;937;-78
2023/02/18 09:07:08;;;;;;;;;;;;;;;22.18;21.16;98042.19;5055478;28;1979;-78
2023/02/18 09:09:34;;;;;;;;;;;;;;;22.31;21.10;98028.81;5089363;28;849;-78
2023/02/18 09:11:59;;;;;;;;;;;;;;;22.19;20.88;98040.94;5089370;28;935;-79
2023/02/18 09:14:25;;;;;;;;;;;;;;;22.11;21.02;98031.03;5056622;28;863;-78
2023/02/18 09:16:51;;;;;;;;;;;;;;;21.72;21.37;98015.88;5055540;28;1490;-78
2023/02/18 09:19:16;;;;;;;;;;;;;;;21.68;21.46;98009.50;5057159;28;829;-78
2023/02/18 09:21:42;;;;;;;;;;;;;;;22.08;21.19;98000.75;5056959;28;926;-79
2023/02/18 09:24:08;;;;;;;;;;;;;;;22.23;20.89;97999.13;5056868;28;904;-78
2023/02/18 09:26:33;;;;;;;;;;;;;;;22.05;21.15;97990.28;5088521;28;1910;-79
2023/02/18 09:28:59;;;;;;;;;;;;;;;21.99;20.92;97981.53;5056731;28;910;-78
2023/02/18 09:31:25;;;;;;;;;;;;;;;21.99;21.07;97992.09;5056832;28;1334;-78
2023/02/18 09:33:51;;;;;;;;;;;;;;;22.20;21.09;97997.16;5056261;28;860;-78
2023/02/18 09:36:17;;;;;;;;;;;;;;;22.38;20.62;98007.19;5055541;28;886;-78
2023/02/18 09:38:42;;;;;;;;;;;;;;;22.23;20.95;97984.94;5056592;28;887;-78
2023/02/18 09:41:13;;;;;;;;;;;;;;;22.05;21.00;97995.94;5089131;28;972;-78
2023/02/18 09:43:42;;;;;;;;;;;;;;;21.88;21.02;98000.09;5088557;28;932;-78
2023/02/18 09:46:23;;;;;;;;;;;;;;;21.86;21.04;97997.69;5055850;28;1899;-79
2023/02/18 09:48:48;;;;;;;;;;;;;;;22.15;20.96;97991.25;5063741;28;1473;-78
2023/02/18 09:51:14;;;;;;;;;;;;;;;22.43;20.56;97995.28;5077430;28;1504;-79
2023/02/18 09:53:40;;;;;;;;;;;;;;;22.44;20.29;97991.22;5088971;28;1498;-78
2023/02/18 09:56:06;;;;;;;;;;;;;;;22.20;20.76;97997.16;5075061;28;871;-78
2023/02/18 09:58:31;;;;;;;;;;;;;;;21.99;20.89;97989.25;5076685;28;1319;-78
2023/02/18 10:01:04;;;;;;;;;;;;;;;22.17;20.84;97995.22;5064817;28;1307;-78
2023/02/18 10:03:30;;;;;;;;;;;;;;;22.47;20.41;97995.97;5092231;28;1372;-78
2023/02/18 10:06:03;;;;;;;;;;;;;;;22.27;20.83;97996.94;5088026;28;1905;-78
2023/02/18 10:08:29;;;;;;;;;;;;;;;21.95;21.08;97988.56;5088845;28;929;-78
2023/02/18 10:10:54;;;;;;;;;;;;;;;21.92;21.06;97995.13;5096346;28;1757;-78
2023/02/18 10:13:21;;;;;;;;;;;;;;;21.82;21.10;97992.13;5072405;28;1030;-78
2023/02/18 10:15:47;;;;;;;;;;;;;;;22.18;20.69;97982.66;5079245;28;1884;-78
2023/02/18 10:18:28;;;;;;;;;;;;;;;22.21;20.66;97984.56;5098240;28;874;-78
2023/02/18 10:21:12;;;;;;;;;;;;;;;22.26;20.76;97984.03;5098079;28;883;-79
2023/02/18 10:23:39;;;;;;;;;;;;;;;21.94;21.06;97981.31;5101160;28;1361;-78
2023/02/18 10:26:05;;;;;;;;;;;;;;;22.04;20.82;97968.88;5101357;28;1982;-78
2023/02/18 10:28:31;;;;;;;;;;;;;;;21.98;21.01;97982.00;5101557;28;921;-78
2023/02/18 10:30:58;;;;;;;;;;;;;;;22.27;20.85;97982.78;5118212;28;926;-79
2023/02/18 10:33:31;;;;;;;;;;;;;;;22.44;20.46;97974.22;5100654;28;1403;-78
2023/02/18 10:35:58;;;;;;;;;;;;;;;21.81;21.03;97984.88;5077028;28;937;-78
2023/02/18 10:38:42;;;;;;;;;;;;;;;21.87;21.07;97976.63;5044196;28;1111;-78
2023/02/18 10:41:32;;;;;;;;;;;;;;;21.67;21.20;97976.78;5073507;28;943;-79
2023/02/18 10:44:00;;;;;;;;;;;;;;;22.14;20.78;97979.13;5057693;28;1001;-78
2023/02/18 10:46:29;;;;;;;;;;;;;;;22.09;20.89;97971.16;5057285;28;1902;-79
2023/02/18 10:48:57;;;;;;;;;;;;;;;22.16;20.84;97967.34;5058090;28;1357;-78
2023/02/18 10:51:29;;;;;;;;;;;;;;;22.02;21.11;97971.34;5037042;28;961;-78
2023/02/18 10:53:55;;;;;;;;;;;;;;;21.93;21.25;97957.06;5037138;28;939;-78
2023/02/18 10:56:39;;;;;;;;;;;;;;;21.86;21.17;97958.03;5037266;28;896;-78
2023/02/18 10:59:23;;;;;;;;;;;;;;;22.09;20.91;97956.97;5036931;28;940;-78
2023/02/18 11:01:57;;;;;;;;;;;;;;;22.33;20.73;97952.66;5036983;28;1044;-78
2023/02/18 11:04:27;;;;;;;;;;;;;;;22.31;20.80;97955.13;5044505;28;1410;-78
2023/02/18 11:06:52;;;;;;;;;;;;;;;21.77;21.67;97944.53;5053141;28;1909;-78
2023/02/18 11:09:38;;;;;;;;;;;;;;;21.95;21.32;97949.69;5059333;28;876;-78
2023/02/18 11:12:05;;;;;;;;;;;;;;;21.88;21.44;97934.94;5057449;28;1160;-78
2023/02/18 11:14:37;;;;;;;;;;;;;;;22.15;20.96;97948.75;5091286;28;913;-78
2023/02/18 11:17:29;;;;;;;;;;;;;;;22.24;20.89;97948.88;5059189;28;861;-78
2023/02/18 11:19:57;;;;;;;;;;;;;;;22.18;20.83;97948.66;5073658;28;1418;-78
2023/02/18 11:22:23;;;;;;;;;;;;;;;22.04;21.13;97941.31;5059351;28;1069;-78
2023/02/18 11:24:52;;;;;;;;;;;;;;;22.02;21.23;97938.16;5076383;28;920;-78
2023/02/18 11:27:22;;;;;;;;;;;;;;;22.00;21.10;97934.16;5059735;28;1993;-78
2023/02/18 11:29:50;;;;;;;;;;;;;;;22.25;21.17;97928.59;5059944;28;1033;-78
2023/02/18 11:32:15;;;;;;;;;;;;;;;22.07;21.34;97933.94;5076714;28;739;-78
2023/02/18 11:34:41;;;;;;;;;;;;;;;22.09;21.28;97931.47;5059537;28;1479;-78
2023/02/18 11:37:25;;;;;;;;;;;;;;;22.08;21.22;97924.22;5059536;28;942;-78
2023/02/18 11:39:51;;;;;;;;;;;;;;;21.98;21.39;97916.84;5059417;28;876;-79
2023/02/18 11:42:21;;;;;;;;;;;;;;;22.10;21.38;97916.88;5059818;28;1204;-78
2023/02/18 11:44:56;;;;;;;;;;;;;;;22.38;20.87;97919.28;5059633;28;1097;-78
2023/02/18 11:47:32;;;;;;;;;;;;;;;22.25;21.25;97927.78;5058710;28;1913;-78
2023/02/18 11:50:02;;;;;;;;;;;;;;;22.19;21.06;97910.56;5059371;28;995;-78
2023/02/18 11:52:32;;;;;;;;;;;;;;;21.96;21.49;97919.31;5058793;28;1356;-78
2023/02/18 11:55:01;;;;;;;;;;;;;;;22.05;21.39;97914.56;5042998;28;914;-78
2023/02/18 11:57:27;;;;;;;;;;;;;;;22.00;21.75;97911.50;5072961;28;911;-78
2023/02/18 11:59:53;;;;;;;;;;;;;;;21.75;22.04;97906.56;5108968;28;1291;-78
2023/02/18 12:02:28;;;;;;;;;;;;;;;22.19;21.32;97906.94;5076859;28;864;-78
2023/02/18 12:05:12;;;;;;;;;;;;;;;22.12;21.58;97902.25;5078541;28;938;-78
2023/02/18 12:08:01;;;;;;;;;;;;;;;22.13;21.35;97894.56;5077935;28;1906;-78
2023/02/18 12:10:30;;;;;;;;;;;;;;;21.92;21.52;97887.47;5095867;28;1015;-79
2023/02/18 12:13:01;;;;;;;;;;;;;;;21.81;21.72;97894.25;5078083;28;1371;-78
2023/02/18 12:15:47;;;;;;;;;;;;;;;22.23;21.50;97884.94;5076399;28;1284;-78
2023/02/18 12:18:31;;;;;;;;;;;;;;;22.30;21.12;97884.72;5074645;28;1434;-78
2023/02/18 12:20:59;;;;;;;;;;;;;;;21.81;21.74;97882.94;5075631;28;884;-78
2023/02/18 12:23:28;;;;;;;;;;;;;;;21.99;21.60;97870.25;5075731;28;866;-78
2023/02/18 12:25:53;;;;;;;;;;;;;;;21.81;21.85;97865.94;5042238;28;1118;-79
2023/02/18 12:28:31;;;;;;;;;;;;;;;22.21;21.30;97881.75;5075525;28;1979;-78
2023/02/18 12:30:59;;;;;;;;;;;;;;;22.20;21.31;97875.31;5058758;28;971;-78
2023/02/18 12:33:32;;;;;;;;;;;;;;;22.19;21.62;97878.59;5084656;28;1296;-78
2023/02/18 12:36:00;;;;;;;;;;;;;;;21.84;21.94;97879.19;5095455;28;920;-78
2023/02/18 12:38:32;;;;;;;;;;;;;;;21.73;22.02;97881.53;5085260;28;1741;-78
2023/02/18 12:41:15;;;;;;;;;;;;;;;22.16;21.52;97879.47;5074949;28;1013;-78
2023/02/18 12:43:59;;;;;;;;;;;;;;;21.81;21.93;97868.75;5058200;28;965;-78
2023/02/18 12:46:25;;;;;;;;;;;;;;;21.99;21.81;97873.09;5073349;28;1898;-78
2023/02/18 12:49:03;;;;;;;;;;;;;;;21.75;22.01;97875.41;5057446;28;908;-78
2023/02/18 12:51:37;;;;;;;;;;;;;;;21.78;22.23;97864.00;5078235;28;1499;-78
2023/02/18 12:54:08;;;;;;;;;;;;;;;21.79;21.99;97864.78;5094837;28;1358;-78
2023/02/18 12:56:59;;;;;;;;;;;;;;;21.99;21.81;97864.59;5095167;28;916;-78
2023/02/18 12:59:33;;;;;;;;;;;;;;;21.97;21.96;97850.88;5057894;28;944;-78
2023/02/18 13:01:59;;;;;;;;;;;;;;;22.00;22.23;97843.50;5074611;28;960;-78
2023/02/18 13:04:27;;;;;;;;;;;;;;;21.98;21.98;97849.63;5074830;28;899;-79
2023/02/18 13:06:55;;;;;;;;;;;;;;;21.94;22.21;97845.31;5072333;28;1964;-78
2023/02/18 13:09:39;;;;;;;;;;;;;;;21.84;22.11;97848.03;5074445;28;995;-79